Aviation Digital Data Service (ADDS)

Output produced by METARs form (1532 UTC 19 January 2019)
found at http://www.aviationweather.gov/metar/data/
 
METAR text: ZHCC 191500Z 30002MPS 5000 BR NSC M01/M04 Q1030 NOSIG
Conditions at: ZHCC (ZHENGZHOU , CN) observed 1500 UTC 19 January 2019
Temperature: -1.0°C (30°F)
Dewpoint: -4.0°C (25°F) [RH = 80%]
Pressure (altimeter): 30.41 inches Hg (1030.0 mb)
Winds: from the WNW (300 degrees) at 5 MPH (4 knots; 2.1 m/s)
Visibility: 3 miles ( 5 km)
Ceiling: at least 12,000 feet AGL
Clouds: sky clear below 12,000 feet AGL
Weather: BR  (mist)

METAR text: ZHCC 191400Z 30002MPS 5000 BR NSC M02/M04 Q1029 NOSIG
Conditions at: ZHCC (ZHENGZHOU , CN) observed 1400 UTC 19 January 2019
Temperature: -2.0°C (28°F)
Dewpoint: -4.0°C (25°F) [RH = 86%]
Pressure (altimeter): 30.38 inches Hg (1029.0 mb)
Winds: from the WNW (300 degrees) at 5 MPH (4 knots; 2.1 m/s)
Visibility: 3 miles ( 5 km)
Ceiling: at least 12,000 feet AGL
Clouds: sky clear below 12,000 feet AGL
Weather: BR  (mist)

METAR text: ZHCC 191300Z 31002MPS 4000 BR NSC M01/M03 Q1029 NOSIG
Conditions at: ZHCC (ZHENGZHOU , CN) observed 1300 UTC 19 January 2019
Temperature: -1.0°C (30°F)
Dewpoint: -3.0°C (27°F) [RH = 86%]
Pressure (altimeter): 30.38 inches Hg (1029.0 mb)
Winds: from the NW (310 degrees) at 5 MPH (4 knots; 2.1 m/s)
Visibility: 2.49 miles (4.01 km)
Ceiling: at least 12,000 feet AGL
Clouds: sky clear below 12,000 feet AGL
Weather: BR  (mist)

METAR text: ZHCC 191200Z 30002MPS 3500 BR NSC M01/M03 Q1028 NOSIG
Conditions at: ZHCC (ZHENGZHOU , CN) observed 1200 UTC 19 January 2019
Temperature: -1.0°C (30°F)
Dewpoint: -3.0°C (27°F) [RH = 86%]
Pressure (altimeter): 30.35 inches Hg (1028.0 mb)
Winds: from the WNW (300 degrees) at 5 MPH (4 knots; 2.1 m/s)
Visibility: 2.17 miles (3.49 km)
Ceiling: at least 12,000 feet AGL
Clouds: sky clear below 12,000 feet AGL
Weather: BR  (mist)

METAR text: ZHCC 191100Z 01002MPS 3000 HZ NSC 02/M03 Q1027 NOSIG
Conditions at: ZHCC (ZHENGZHOU , CN) observed 1100 UTC 19 January 2019
Temperature: 2.0°C (36°F)
Dewpoint: -3.0°C (27°F) [RH = 69%]
Pressure (altimeter): 30.32 inches Hg (1027.0 mb)
Winds: from the N (10 degrees) at 5 MPH (4 knots; 2.1 m/s)
Visibility: 1.86 miles (2.99 km)
Ceiling: at least 12,000 feet AGL
Clouds: sky clear below 12,000 feet AGL
Weather: HZ  (haze)

METAR text: ZHCC 191000Z 02003MPS 2500 HZ NSC 02/M03 Q1026 BECMG TL1040 3000
Conditions at: ZHCC (ZHENGZHOU , CN) observed 1000 UTC 19 January 2019
Temperature: 2.0°C (36°F)
Dewpoint: -3.0°C (27°F) [RH = 69%]
Pressure (altimeter): 30.30 inches Hg (1026.0 mb)
Winds: from the NNE (20 degrees) at 7 MPH (6 knots; 3.1 m/s)
Visibility: 1.55 miles (2.49 km)
Ceiling: at least 12,000 feet AGL
Clouds: sky clear below 12,000 feet AGL
Weather: HZ  (haze)

METAR text: ZHCC 190900Z 04005MPS 360V060 2200 HZ NSC 03/M02 Q1025 BECMG TL1040 3000
Conditions at: ZHCC (ZHENGZHOU , CN) observed 0900 UTC 19 January 2019
Temperature: 3.0°C (37°F)
Dewpoint: -2.0°C (28°F) [RH = 70%]
Pressure (altimeter): 30.27 inches Hg (1025.0 mb)
Winds: from the NE (40 degrees) at 12 MPH (10 knots; 5.1 m/s)
Visibility: 1.37 miles (2.20 km)
Ceiling: at least 12,000 feet AGL
Clouds: sky clear below 12,000 feet AGL
Weather: HZ  (haze)

METAR text: ZHCC 190800Z 03005MPS 2200 HZ NSC 04/M02 Q1025 NOSIG
Conditions at: ZHCC (ZHENGZHOU , CN) observed 0800 UTC 19 January 2019
Temperature: 4.0°C (39°F)
Dewpoint: -2.0°C (28°F) [RH = 65%]
Pressure (altimeter): 30.27 inches Hg (1025.0 mb)
Winds: from the NNE (30 degrees) at 12 MPH (10 knots; 5.1 m/s)
Visibility: 1.37 miles (2.20 km)
Ceiling: at least 12,000 feet AGL
Clouds: sky clear below 12,000 feet AGL
Weather: HZ  (haze)

METAR text: ZHCC 190700Z 02005MPS 350V050 2200 HZ NSC 04/M01 Q1025 NOSIG
Conditions at: ZHCC (ZHENGZHOU , CN) observed 0700 UTC 19 January 2019
Temperature: 4.0°C (39°F)
Dewpoint: -1.0°C (30°F) [RH = 70%]
Pressure (altimeter): 30.27 inches Hg (1025.0 mb)
Winds: from the NNE (20 degrees) at 12 MPH (10 knots; 5.1 m/s)
Visibility: 1.37 miles (2.20 km)
Ceiling: at least 12,000 feet AGL
Clouds: sky clear below 12,000 feet AGL
Weather: HZ  (haze)

METAR text: ZHCC 190600Z 02006MPS 350V050 2500 HZ NSC 05/M02 Q1024 NOSIG
Conditions at: ZHCC (ZHENGZHOU , CN) observed 0600 UTC 19 January 2019
Temperature: 5.0°C (41°F)
Dewpoint: -2.0°C (28°F) [RH = 60%]
Pressure (altimeter): 30.24 inches Hg (1024.0 mb)
Winds: from the NNE (20 degrees) at 14 MPH (12 knots; 6.2 m/s)
Visibility: 1.55 miles (2.49 km)
Ceiling: at least 12,000 feet AGL
Clouds: sky clear below 12,000 feet AGL
Weather: HZ  (haze)

METAR text: ZHCC 190500Z 03005MPS 2000 HZ NSC 05/M04 Q1025 NOSIG
Conditions at: ZHCC (ZHENGZHOU , CN) observed 0500 UTC 19 January 2019
Temperature: 5.0°C (41°F)
Dewpoint: -4.0°C (25°F) [RH = 52%]
Pressure (altimeter): 30.27 inches Hg (1025.0 mb)
Winds: from the NNE (30 degrees) at 12 MPH (10 knots; 5.1 m/s)
Visibility: 1.24 miles (2.00 km)
Ceiling: at least 12,000 feet AGL
Clouds: sky clear below 12,000 feet AGL
Weather: HZ  (haze)

METAR text: ZHCC 190400Z 03006MPS 350V050 2000 HZ NSC 04/M04 Q1025 NOSIG
Conditions at: ZHCC (ZHENGZHOU , CN) observed 0400 UTC 19 January 2019
Temperature: 4.0°C (39°F)
Dewpoint: -4.0°C (25°F) [RH = 56%]
Pressure (altimeter): 30.27 inches Hg (1025.0 mb)
Winds: from the NNE (30 degrees) at 14 MPH (12 knots; 6.2 m/s)
Visibility: 1.24 miles (2.00 km)
Ceiling: at least 12,000 feet AGL
Clouds: sky clear below 12,000 feet AGL
Weather: HZ  (haze)

METAR text: ZHCC 190300Z 01006MPS 2000 HZ NSC 04/M07 Q1026 BECMG TL0440 3000
Conditions at: ZHCC (ZHENGZHOU , CN) observed 0300 UTC 19 January 2019
Temperature: 4.0°C (39°F)
Dewpoint: -7.0°C (19°F) [RH = 44%]
Pressure (altimeter): 30.30 inches Hg (1026.0 mb)
Winds: from the N (10 degrees) at 14 MPH (12 knots; 6.2 m/s)
Visibility: 1.24 miles (2.00 km)
Ceiling: at least 12,000 feet AGL
Clouds: sky clear below 12,000 feet AGL
Weather: HZ  (haze)

METAR text: ZHCC 190200Z 01004MPS 2000 HZ OVC040 03/M09 Q1026 NOSIG
Conditions at: ZHCC (ZHENGZHOU , CN) observed 0200 UTC 19 January 2019
Temperature: 3.0°C (37°F)
Dewpoint: -9.0°C (16°F) [RH = 41%]
Pressure (altimeter): 30.30 inches Hg (1026.0 mb)
Winds: from the N (10 degrees) at 9 MPH (8 knots; 4.1 m/s)
Visibility: 1.24 miles (2.00 km)
Ceiling: 4000 feet AGL
Clouds: overcast cloud deck at 4000 feet AGL
Weather: HZ  (haze)

METAR text: ZHCC 190100Z 33003MPS 260V040 3000 HZ OVC040 02/M05 Q1026 BECMG TL0140 2500 HZ
Conditions at: ZHCC (ZHENGZHOU , CN) observed 0100 UTC 19 January 2019
Temperature: 2.0°C (36°F)
Dewpoint: -5.0°C (23°F) [RH = 60%]
Pressure (altimeter): 30.30 inches Hg (1026.0 mb)
Winds: from the NNW (330 degrees) at 7 MPH (6 knots; 3.1 m/s)
Visibility: 1.86 miles (2.99 km)
Ceiling: 4000 feet AGL
Clouds: overcast cloud deck at 4000 feet AGL
Weather: HZ  (haze)

METAR text: ZHCC 190000Z 35002MPS 320V020 3000 HZ OVC040 02/M04 Q1024 NOSIG
Conditions at: ZHCC (ZHENGZHOU , CN) observed 0000 UTC 19 January 2019
Temperature: 2.0°C (36°F)
Dewpoint: -4.0°C (25°F) [RH = 64%]
Pressure (altimeter): 30.24 inches Hg (1024.0 mb)
Winds: from the N (350 degrees) at 5 MPH (4 knots; 2.1 m/s)
Visibility: 1.86 miles (2.99 km)
Ceiling: 4000 feet AGL
Clouds: overcast cloud deck at 4000 feet AGL
Weather: HZ  (haze)

METAR text: ZHCC 182300Z 32002MPS 4000 BR OVC030 02/M02 Q1024 NOSIG
Conditions at: ZHCC (ZHENGZHOU , CN) observed 2300 UTC 18 January 2019
Temperature: 2.0°C (36°F)
Dewpoint: -2.0°C (28°F) [RH = 75%]
Pressure (altimeter): 30.24 inches Hg (1024.0 mb)
Winds: from the NW (320 degrees) at 5 MPH (4 knots; 2.1 m/s)
Visibility: 2.49 miles (4.01 km)
Ceiling: 3000 feet AGL
Clouds: overcast cloud deck at 3000 feet AGL
Weather: BR  (mist)

METAR text: ZHCC 182200Z 33003MPS 4000 BR OVC030 02/M01 Q1023 NOSIG
Conditions at: ZHCC (ZHENGZHOU , CN) observed 2200 UTC 18 January 2019
Temperature: 2.0°C (36°F)
Dewpoint: -1.0°C (30°F) [RH = 80%]
Pressure (altimeter): 30.21 inches Hg (1023.0 mb)
Winds: from the NNW (330 degrees) at 7 MPH (6 knots; 3.1 m/s)
Visibility: 2.49 miles (4.01 km)
Ceiling: 3000 feet AGL
Clouds: overcast cloud deck at 3000 feet AGL
Weather: BR  (mist)

METAR text: ZHCC 182100Z 36002MPS 3000 BR OVC030 02/M01 Q1022 NOSIG
Conditions at: ZHCC (ZHENGZHOU , CN) observed 2100 UTC 18 January 2019
Temperature: 2.0°C (36°F)
Dewpoint: -1.0°C (30°F) [RH = 80%]
Pressure (altimeter): 30.18 inches Hg (1022.0 mb)
Winds: from the N (360 degrees) at 5 MPH (4 knots; 2.1 m/s)
Visibility: 1.86 miles (2.99 km)
Ceiling: 3000 feet AGL
Clouds: overcast cloud deck at 3000 feet AGL
Weather: BR  (mist)

METAR text: ZHCC 182000Z 35002MPS 3000 -RA BR OVC030 02/M00 Q1023 NOSIG
Conditions at: ZHCC (ZHENGZHOU , CN) observed 2000 UTC 18 January 2019
Temperature: 2.0°C (36°F)
Dewpoint: 0.0°C (32°F) [RH = 87%]
Pressure (altimeter): 30.21 inches Hg (1023.0 mb)
Winds: from the N (350 degrees) at 5 MPH (4 knots; 2.1 m/s)
Visibility: 1.86 miles (2.99 km)
Ceiling: 3000 feet AGL
Clouds: overcast cloud deck at 3000 feet AGL
Weather: -RA BR  (light rain, mist)

METAR text: ZHCC 181900Z 34002MPS 3000 -RA BR OVC030 02/M00 Q1023 NOSIG
Conditions at: ZHCC (ZHENGZHOU , CN) observed 1900 UTC 18 January 2019
Temperature: 2.0°C (36°F)
Dewpoint: 0.0°C (32°F) [RH = 87%]
Pressure (altimeter): 30.21 inches Hg (1023.0 mb)
Winds: from the NNW (340 degrees) at 5 MPH (4 knots; 2.1 m/s)
Visibility: 1.86 miles (2.99 km)
Ceiling: 3000 feet AGL
Clouds: overcast cloud deck at 3000 feet AGL
Weather: -RA BR  (light rain, mist)

METAR text: ZHCC 181800Z 31002MPS 5000 -RA BR OVC030 02/M01 Q1023 NOSIG
Conditions at: ZHCC (ZHENGZHOU , CN) observed 1800 UTC 18 January 2019
Temperature: 2.0°C (36°F)
Dewpoint: -1.0°C (30°F) [RH = 80%]
Pressure (altimeter): 30.21 inches Hg (1023.0 mb)
Winds: from the NW (310 degrees) at 5 MPH (4 knots; 2.1 m/s)
Visibility: 3 miles ( 5 km)
Ceiling: 3000 feet AGL
Clouds: overcast cloud deck at 3000 feet AGL
Weather: -RA BR  (light rain, mist)

METAR text: ZHCC 181700Z 32003MPS 5000 -RA BR OVC030 02/M02 Q1023 NOSIG
Conditions at: ZHCC (ZHENGZHOU , CN) observed 1700 UTC 18 January 2019
Temperature: 2.0°C (36°F)
Dewpoint: -2.0°C (28°F) [RH = 75%]
Pressure (altimeter): 30.21 inches Hg (1023.0 mb)
Winds: from the NW (320 degrees) at 7 MPH (6 knots; 3.1 m/s)
Visibility: 3 miles ( 5 km)
Ceiling: 3000 feet AGL
Clouds: overcast cloud deck at 3000 feet AGL
Weather: -RA BR  (light rain, mist)

METAR text: ZHCC 181500Z 30002MPS 5000 BR NSC 03/M02 Q1023 NOSIG
Conditions at: ZHCC (ZHENGZHOU , CN) observed 1500 UTC 18 January 2019
Temperature: 3.0°C (37°F)
Dewpoint: -2.0°C (28°F) [RH = 70%]
Pressure (altimeter): 30.21 inches Hg (1023.0 mb)
Winds: from the WNW (300 degrees) at 5 MPH (4 knots; 2.1 m/s)
Visibility: 3 miles ( 5 km)
Ceiling: at least 12,000 feet AGL
Clouds: sky clear below 12,000 feet AGL
Weather: BR  (mist)

METAR text: ZHCC 181400Z 27002MPS 5000 HZ NSC 04/M03 Q1023 NOSIG
Conditions at: ZHCC (ZHENGZHOU , CN) observed 1400 UTC 18 January 2019
Temperature: 4.0°C (39°F)
Dewpoint: -3.0°C (27°F) [RH = 60%]
Pressure (altimeter): 30.21 inches Hg (1023.0 mb)
Winds: from the W (270 degrees) at 5 MPH (4 knots; 2.1 m/s)
Visibility: 3 miles ( 5 km)
Ceiling: at least 12,000 feet AGL
Clouds: sky clear below 12,000 feet AGL
Weather: HZ  (haze)

METAR text: ZHCC 181300Z VRB01MPS 5000 HZ NSC 05/M03 Q1022 NOSIG
Conditions at: ZHCC (ZHENGZHOU , CN) observed 1300 UTC 18 January 2019
Temperature: 5.0°C (41°F)
Dewpoint: -3.0°C (27°F) [RH = 56%]
Pressure (altimeter): 30.18 inches Hg (1022.0 mb)
Winds: variable direction winds at 2 MPH (2 knots; 1.0 m/s)
Visibility: 3 miles ( 5 km)
Ceiling: at least 12,000 feet AGL
Clouds: sky clear below 12,000 feet AGL
Weather: HZ  (haze)

METAR text: ZHCC 181200Z VRB01MPS 5000 HZ NSC 05/M02 Q1022 NOSIG
Conditions at: ZHCC (ZHENGZHOU , CN) observed 1200 UTC 18 January 2019
Temperature: 5.0°C (41°F)
Dewpoint: -2.0°C (28°F) [RH = 60%]
Pressure (altimeter): 30.18 inches Hg (1022.0 mb)
Winds: variable direction winds at 2 MPH (2 knots; 1.0 m/s)
Visibility: 3 miles ( 5 km)
Ceiling: at least 12,000 feet AGL
Clouds: sky clear below 12,000 feet AGL
Weather: HZ  (haze)

METAR text: ZHCC 181100Z 12001MPS 5000 HZ NSC 05/M03 Q1021 NOSIG
Conditions at: ZHCC (ZHENGZHOU , CN) observed 1100 UTC 18 January 2019
Temperature: 5.0°C (41°F)
Dewpoint: -3.0°C (27°F) [RH = 56%]
Pressure (altimeter): 30.15 inches Hg (1021.0 mb)
Winds: from the ESE (120 degrees) at 2 MPH (2 knots; 1.0 m/s)
Visibility: 3 miles ( 5 km)
Ceiling: at least 12,000 feet AGL
Clouds: sky clear below 12,000 feet AGL
Weather: HZ  (haze)

METAR text: ZHCC 181000Z VRB01MPS 5000 HZ NSC 06/M03 Q1021 NOSIG
Conditions at: ZHCC (ZHENGZHOU , CN) observed 1000 UTC 18 January 2019
Temperature: 6.0°C (43°F)
Dewpoint: -3.0°C (27°F) [RH = 52%]
Pressure (altimeter): 30.15 inches Hg (1021.0 mb)
Winds: variable direction winds at 2 MPH (2 knots; 1.0 m/s)
Visibility: 3 miles ( 5 km)
Ceiling: at least 12,000 feet AGL
Clouds: sky clear below 12,000 feet AGL
Weather: HZ  (haze)

METAR text: ZHCC 180900Z VRB01MPS 4000 HZ NSC 06/M03 Q1021 NOSIG
Conditions at: ZHCC (ZHENGZHOU , CN) observed 0900 UTC 18 January 2019
Temperature: 6.0°C (43°F)
Dewpoint: -3.0°C (27°F) [RH = 52%]
Pressure (altimeter): 30.15 inches Hg (1021.0 mb)
Winds: variable direction winds at 2 MPH (2 knots; 1.0 m/s)
Visibility: 2.49 miles (4.01 km)
Ceiling: at least 12,000 feet AGL
Clouds: sky clear below 12,000 feet AGL
Weather: HZ  (haze)

METAR text: ZHCC 180800Z 18002MPS 150V210 4000 HZ NSC 07/M03 Q1020 NOSIG
Conditions at: ZHCC (ZHENGZHOU , CN) observed 0800 UTC 18 January 2019
Temperature: 7.0°C (45°F)
Dewpoint: -3.0°C (27°F) [RH = 49%]
Pressure (altimeter): 30.12 inches Hg (1020.0 mb)
Winds: from the S (180 degrees) at 5 MPH (4 knots; 2.1 m/s)
Visibility: 2.49 miles (4.01 km)
Ceiling: at least 12,000 feet AGL
Clouds: sky clear below 12,000 feet AGL
Weather: HZ  (haze)

METAR text: ZHCC 180700Z 16002MPS 110V210 5000 HZ NSC 08/M04 Q1020 NOSIG
Conditions at: ZHCC (ZHENGZHOU , CN) observed 0700 UTC 18 January 2019
Temperature: 8.0°C (46°F)
Dewpoint: -4.0°C (25°F) [RH = 42%]
Pressure (altimeter): 30.12 inches Hg (1020.0 mb)
Winds: from the SSE (160 degrees) at 5 MPH (4 knots; 2.1 m/s)
Visibility: 3 miles ( 5 km)
Ceiling: at least 12,000 feet AGL
Clouds: sky clear below 12,000 feet AGL
Weather: HZ  (haze)

METAR text: ZHCC 180600Z 17002MPS 120V210 5000 HZ NSC 08/M05 Q1021 NOSIG
Conditions at: ZHCC (ZHENGZHOU , CN) observed 0600 UTC 18 January 2019
Temperature: 8.0°C (46°F)
Dewpoint: -5.0°C (23°F) [RH = 39%]
Pressure (altimeter): 30.15 inches Hg (1021.0 mb)
Winds: from the S (170 degrees) at 5 MPH (4 knots; 2.1 m/s)
Visibility: 3 miles ( 5 km)
Ceiling: at least 12,000 feet AGL
Clouds: sky clear below 12,000 feet AGL
Weather: HZ  (haze)

METAR text: ZHCC 180500Z 18002MPS 130V260 5000 HZ NSC 09/M04 Q1022 NOSIG
Conditions at: ZHCC (ZHENGZHOU , CN) observed 0500 UTC 18 January 2019
Temperature: 9.0°C (48°F)
Dewpoint: -4.0°C (25°F) [RH = 40%]
Pressure (altimeter): 30.18 inches Hg (1022.0 mb)
Winds: from the S (180 degrees) at 5 MPH (4 knots; 2.1 m/s)
Visibility: 3 miles ( 5 km)
Ceiling: at least 12,000 feet AGL
Clouds: sky clear below 12,000 feet AGL
Weather: HZ  (haze)

METAR text: ZHCC 180400Z VRB01MPS 4000 HZ NSC 08/M04 Q1023 NOSIG
Conditions at: ZHCC (ZHENGZHOU , CN) observed 0400 UTC 18 January 2019
Temperature: 8.0°C (46°F)
Dewpoint: -4.0°C (25°F) [RH = 42%]
Pressure (altimeter): 30.21 inches Hg (1023.0 mb)
Winds: variable direction winds at 2 MPH (2 knots; 1.0 m/s)
Visibility: 2.49 miles (4.01 km)
Ceiling: at least 12,000 feet AGL
Clouds: sky clear below 12,000 feet AGL
Weather: HZ  (haze)

Forecast for: ZHCC (ZHENGZHOU , CN)
Text: TAF ZHCC 190912Z 1912/2012 03004MPS 3000 HZ NSC TX06/2007Z TNM03/22Z
Forecast period: 1200 UTC 19 January 2019 to 1200 UTC 20 January 2019
Forecast type: FROM: standard forecast or significant change
Winds: from the NNE (30 degrees) at 9 MPH (8 knots; 4.1 m/s)
Visibility: 1.86 miles (2.99 km)
Ceiling: unknown
Clouds: missing
Weather: HZ  (haze)